sensor_id;sensor_type;location;lat;lon;timestamp;P1;durP1;ratioP1;P2;durP2;ratioP2
12267;SDS011;6196;48.398;11.736;2022-10-29T00:00:54;4.13;;;2.90;;
12267;SDS011;6196;48.398;11.736;2022-10-29T00:03:22;4.37;;;2.93;;
12267;SDS011;6196;48.398;11.736;2022-10-29T00:05:54;9.73;;;2.93;;
12267;SDS011;6196;48.398;11.736;2022-10-29T00:08:30;5.17;;;3.00;;
12267;SDS011;6196;48.398;11.736;2022-10-29T00:11:17;5.93;;;2.80;;
12267;SDS011;6196;48.398;11.736;2022-10-29T00:13:45;3.13;;;2.53;;
12267;SDS011;6196;48.398;11.736;2022-10-29T00:16:18;3.50;;;2.60;;
12267;SDS011;6196;48.398;11.736;2022-10-29T00:18:48;6.13;;;3.07;;
12267;SDS011;6196;48.398;11.736;2022-10-29T00:21:16;4.00;;;2.80;;
12267;SDS011;6196;48.398;11.736;2022-10-29T00:23:45;5.10;;;3.17;;
12267;SDS011;6196;48.398;11.736;2022-10-29T00:26:13;3.70;;;2.77;;
12267;SDS011;6196;48.398;11.736;2022-10-29T00:28:41;6.13;;;3.00;;
12267;SDS011;6196;48.398;11.736;2022-10-29T00:31:12;3.97;;;2.90;;
12267;SDS011;6196;48.398;11.736;2022-10-29T00:33:41;5.23;;;2.93;;
12267;SDS011;6196;48.398;11.736;2022-10-29T00:36:09;4.10;;;2.70;;
12267;SDS011;6196;48.398;11.736;2022-10-29T00:38:41;3.97;;;2.50;;
12267;SDS011;6196;48.398;11.736;2022-10-29T00:41:10;5.57;;;3.40;;
12267;SDS011;6196;48.398;11.736;2022-10-29T00:43:52;4.30;;;2.80;;
12267;SDS011;6196;48.398;11.736;2022-10-29T00:46:40;4.93;;;3.20;;
12267;SDS011;6196;48.398;11.736;2022-10-29T00:49:12;5.47;;;3.03;;
12267;SDS011;6196;48.398;11.736;2022-10-29T00:51:40;5.03;;;2.73;;
12267;SDS011;6196;48.398;11.736;2022-10-29T00:54:08;4.53;;;2.60;;
12267;SDS011;6196;48.398;11.736;2022-10-29T00:57:00;5.57;;;3.03;;
12267;SDS011;6196;48.398;11.736;2022-10-29T00:59:39;4.30;;;3.10;;
12267;SDS011;6196;48.398;11.736;2022-10-29T01:02:08;6.80;;;3.47;;
12267;SDS011;6196;48.398;11.736;2022-10-29T01:04:35;5.40;;;3.73;;
12267;SDS011;6196;48.398;11.736;2022-10-29T01:07:04;4.87;;;3.33;;
12267;SDS011;6196;48.398;11.736;2022-10-29T01:09:31;5.20;;;3.20;;
12267;SDS011;6196;48.398;11.736;2022-10-29T01:17:36;3.43;;;2.10;;
12267;SDS011;6196;48.398;11.736;2022-10-29T01:27:19;5.27;;;3.00;;
12267;SDS011;6196;48.398;11.736;2022-10-29T01:40:39;4.10;;;2.87;;
12267;SDS011;6196;48.398;11.736;2022-10-29T01:43:44;3.93;;;2.60;;
12267;SDS011;6196;48.398;11.736;2022-10-29T01:49:11;5.37;;;3.10;;
12267;SDS011;6196;48.398;11.736;2022-10-29T01:51:47;4.53;;;2.87;;
12267;SDS011;6196;48.398;11.736;2022-10-29T01:54:16;6.93;;;3.37;;
12267;SDS011;6196;48.398;11.736;2022-10-29T01:56:42;4.93;;;3.43;;
12267;SDS011;6196;48.398;11.736;2022-10-29T01:59:17;5.00;;;3.20;;
12267;SDS011;6196;48.398;11.736;2022-10-29T02:02:23;6.33;;;3.60;;
12267;SDS011;6196;48.398;11.736;2022-10-29T02:13:50;7.03;;;4.00;;
12267;SDS011;6196;48.398;11.736;2022-10-29T02:16:32;5.00;;;4.23;;
12267;SDS011;6196;48.398;11.736;2022-10-29T02:18:59;5.50;;;3.47;;
12267;SDS011;6196;48.398;11.736;2022-10-29T02:21:27;7.30;;;4.13;;
12267;SDS011;6196;48.398;11.736;2022-10-29T02:23:54;6.23;;;4.20;;
12267;SDS011;6196;48.398;11.736;2022-10-29T02:26:20;4.93;;;3.80;;
12267;SDS011;6196;48.398;11.736;2022-10-29T02:28:47;7.43;;;4.20;;
12267;SDS011;6196;48.398;11.736;2022-10-29T02:31:14;5.03;;;3.40;;
12267;SDS011;6196;48.398;11.736;2022-10-29T02:33:41;5.20;;;3.60;;
12267;SDS011;6196;48.398;11.736;2022-10-29T02:36:08;5.23;;;2.93;;
12267;SDS011;6196;48.398;11.736;2022-10-29T02:38:35;6.93;;;3.23;;
12267;SDS011;6196;48.398;11.736;2022-10-29T02:41:01;5.10;;;3.23;;
12267;SDS011;6196;48.398;11.736;2022-10-29T02:43:28;10.50;;;3.60;;
12267;SDS011;6196;48.398;11.736;2022-10-29T02:46:14;5.27;;;3.50;;
12267;SDS011;6196;48.398;11.736;2022-10-29T02:48:44;5.47;;;3.47;;
12267;SDS011;6196;48.398;11.736;2022-10-29T02:51:11;4.30;;;3.30;;
12267;SDS011;6196;48.398;11.736;2022-10-29T02:53:38;4.37;;;3.73;;
12267;SDS011;6196;48.398;11.736;2022-10-29T02:56:05;4.90;;;3.40;;
12267;SDS011;6196;48.398;11.736;2022-10-29T02:58:33;7.17;;;4.10;;
12267;SDS011;6196;48.398;11.736;2022-10-29T03:00:59;4.53;;;3.63;;
12267;SDS011;6196;48.398;11.736;2022-10-29T03:03:27;4.80;;;3.73;;
12267;SDS011;6196;48.398;11.736;2022-10-29T03:05:54;8.53;;;3.67;;
12267;SDS011;6196;48.398;11.736;2022-10-29T03:08:21;3.40;;;2.73;;
12267;SDS011;6196;48.398;11.736;2022-10-29T03:10:48;5.23;;;3.80;;
12267;SDS011;6196;48.398;11.736;2022-10-29T03:13:15;5.70;;;4.03;;
12267;SDS011;6196;48.398;11.736;2022-10-29T03:15:44;5.73;;;3.00;;
12267;SDS011;6196;48.398;11.736;2022-10-29T03:18:11;2.90;;;2.60;;
12267;SDS011;6196;48.398;11.736;2022-10-29T03:20:38;3.67;;;2.60;;
12267;SDS011;6196;48.398;11.736;2022-10-29T03:23:05;3.70;;;2.47;;
12267;SDS011;6196;48.398;11.736;2022-10-29T03:25:31;3.10;;;2.77;;
12267;SDS011;6196;48.398;11.736;2022-10-29T03:27:58;6.20;;;3.20;;
12267;SDS011;6196;48.398;11.736;2022-10-29T03:30:25;4.40;;;3.47;;
12267;SDS011;6196;48.398;11.736;2022-10-29T03:32:52;6.50;;;3.80;;
12267;SDS011;6196;48.398;11.736;2022-10-29T03:35:19;4.90;;;3.47;;
12267;SDS011;6196;48.398;11.736;2022-10-29T03:37:50;5.90;;;4.40;;
12267;SDS011;6196;48.398;11.736;2022-10-29T03:40:18;6.63;;;3.67;;
12267;SDS011;6196;48.398;11.736;2022-10-29T03:42:45;2.87;;;2.60;;
12267;SDS011;6196;48.398;11.736;2022-10-29T03:45:12;4.20;;;3.07;;
12267;SDS011;6196;48.398;11.736;2022-10-29T03:47:39;5.80;;;4.57;;
12267;SDS011;6196;48.398;11.736;2022-10-29T03:50:06;7.90;;;4.40;;
12267;SDS011;6196;48.398;11.736;2022-10-29T03:52:34;5.07;;;3.40;;
12267;SDS011;6196;48.398;11.736;2022-10-29T03:55:01;3.20;;;2.70;;
12267;SDS011;6196;48.398;11.736;2022-10-29T03:57:28;2.57;;;2.30;;
12267;SDS011;6196;48.398;11.736;2022-10-29T03:59:55;3.87;;;2.23;;
12267;SDS011;6196;48.398;11.736;2022-10-29T04:02:22;3.73;;;2.40;;
12267;SDS011;6196;48.398;11.736;2022-10-29T04:04:49;4.67;;;3.50;;
12267;SDS011;6196;48.398;11.736;2022-10-29T04:07:16;5.20;;;4.20;;
12267;SDS011;6196;48.398;11.736;2022-10-29T04:09:43;7.30;;;4.50;;
12267;SDS011;6196;48.398;11.736;2022-10-29T04:12:10;6.43;;;4.80;;
12267;SDS011;6196;48.398;11.736;2022-10-29T04:14:37;7.00;;;4.80;;
12267;SDS011;6196;48.398;11.736;2022-10-29T04:17:10;8.07;;;4.23;;
12267;SDS011;6196;48.398;11.736;2022-10-29T04:19:37;5.60;;;4.13;;
12267;SDS011;6196;48.398;11.736;2022-10-29T04:22:05;3.30;;;3.00;;
12267;SDS011;6196;48.398;11.736;2022-10-29T04:24:52;4.30;;;2.83;;
12267;SDS011;6196;48.398;11.736;2022-10-29T04:27:39;4.50;;;2.80;;
12267;SDS011;6196;48.398;11.736;2022-10-29T04:30:25;5.73;;;3.47;;
12267;SDS011;6196;48.398;11.736;2022-10-29T04:32:56;5.10;;;3.50;;
12267;SDS011;6196;48.398;11.736;2022-10-29T04:35:25;4.00;;;3.20;;
12267;SDS011;6196;48.398;11.736;2022-10-29T04:37:54;4.40;;;3.00;;
12267;SDS011;6196;48.398;11.736;2022-10-29T04:40:21;4.13;;;3.27;;
12267;SDS011;6196;48.398;11.736;2022-10-29T04:42:49;4.07;;;2.97;;
12267;SDS011;6196;48.398;11.736;2022-10-29T04:45:16;5.33;;;2.80;;
12267;SDS011;6196;48.398;11.736;2022-10-29T04:47:43;2.70;;;2.47;;
12267;SDS011;6196;48.398;11.736;2022-10-29T04:50:11;2.90;;;2.40;;
12267;SDS011;6196;48.398;11.736;2022-10-29T04:52:37;3.40;;;2.30;;
12267;SDS011;6196;48.398;11.736;2022-10-29T04:55:04;4.03;;;2.57;;
12267;SDS011;6196;48.398;11.736;2022-10-29T04:57:31;6.63;;;2.63;;
12267;SDS011;6196;48.398;11.736;2022-10-29T04:59:58;3.80;;;2.53;;
12267;SDS011;6196;48.398;11.736;2022-10-29T05:02:25;4.40;;;2.70;;
12267;SDS011;6196;48.398;11.736;2022-10-29T05:04:52;3.10;;;2.80;;
12267;SDS011;6196;48.398;11.736;2022-10-29T05:07:19;5.30;;;2.60;;
12267;SDS011;6196;48.398;11.736;2022-10-29T05:09:45;4.00;;;3.00;;
12267;SDS011;6196;48.398;11.736;2022-10-29T05:12:12;7.17;;;3.07;;
12267;SDS011;6196;48.398;11.736;2022-10-29T05:14:39;5.47;;;4.13;;
12267;SDS011;6196;48.398;11.736;2022-10-29T05:17:06;8.43;;;3.90;;
12267;SDS011;6196;48.398;11.736;2022-10-29T05:19:37;5.10;;;3.97;;
12267;SDS011;6196;48.398;11.736;2022-10-29T05:22:04;8.23;;;3.83;;
12267;SDS011;6196;48.398;11.736;2022-10-29T05:24:31;6.40;;;3.60;;
12267;SDS011;6196;48.398;11.736;2022-10-29T05:26:58;9.70;;;4.00;;
12267;SDS011;6196;48.398;11.736;2022-10-29T05:29:25;4.37;;;3.97;;
12267;SDS011;6196;48.398;11.736;2022-10-29T05:31:52;6.23;;;4.53;;
12267;SDS011;6196;48.398;11.736;2022-10-29T05:34:19;4.60;;;4.20;;
12267;SDS011;6196;48.398;11.736;2022-10-29T05:36:46;5.37;;;3.80;;
12267;SDS011;6196;48.398;11.736;2022-10-29T05:39:13;6.07;;;3.70;;
12267;SDS011;6196;48.398;11.736;2022-10-29T05:41:40;5.10;;;3.93;;
12267;SDS011;6196;48.398;11.736;2022-10-29T05:44:07;6.90;;;3.70;;
12267;SDS011;6196;48.398;11.736;2022-10-29T05:46:34;6.60;;;4.20;;
12267;SDS011;6196;48.398;11.736;2022-10-29T05:49:01;5.20;;;3.40;;
12267;SDS011;6196;48.398;11.736;2022-10-29T05:51:29;5.63;;;3.70;;
12267;SDS011;6196;48.398;11.736;2022-10-29T05:53:56;5.57;;;3.70;;
12267;SDS011;6196;48.398;11.736;2022-10-29T05:56:22;6.03;;;3.60;;
12267;SDS011;6196;48.398;11.736;2022-10-29T05:58:49;5.77;;;3.50;;
12267;SDS011;6196;48.398;11.736;2022-10-29T06:01:16;6.97;;;4.30;;
12267;SDS011;6196;48.398;11.736;2022-10-29T06:03:45;5.63;;;3.83;;
12267;SDS011;6196;48.398;11.736;2022-10-29T06:06:12;6.20;;;3.63;;
12267;SDS011;6196;48.398;11.736;2022-10-29T06:08:39;7.63;;;3.60;;
12267;SDS011;6196;48.398;11.736;2022-10-29T06:11:06;7.50;;;3.73;;
12267;SDS011;6196;48.398;11.736;2022-10-29T06:13:33;6.70;;;3.53;;
12267;SDS011;6196;48.398;11.736;2022-10-29T06:16:01;6.10;;;3.70;;
12267;SDS011;6196;48.398;11.736;2022-10-29T06:18:28;6.57;;;3.63;;
12267;SDS011;6196;48.398;11.736;2022-10-29T06:20:58;3.63;;;3.23;;
12267;SDS011;6196;48.398;11.736;2022-10-29T06:23:26;7.70;;;4.83;;
12267;SDS011;6196;48.398;11.736;2022-10-29T06:25:53;6.17;;;3.17;;
12267;SDS011;6196;48.398;11.736;2022-10-29T06:28:20;5.10;;;3.60;;
12267;SDS011;6196;48.398;11.736;2022-10-29T06:30:47;6.67;;;3.43;;
12267;SDS011;6196;48.398;11.736;2022-10-29T06:33:16;7.27;;;2.97;;
12267;SDS011;6196;48.398;11.736;2022-10-29T06:35:43;4.40;;;3.13;;
12267;SDS011;6196;48.398;11.736;2022-10-29T06:38:11;4.83;;;3.10;;
12267;SDS011;6196;48.398;11.736;2022-10-29T06:40:38;4.47;;;3.20;;
12267;SDS011;6196;48.398;11.736;2022-10-29T06:43:08;5.57;;;3.40;;
12267;SDS011;6196;48.398;11.736;2022-10-29T06:45:36;7.00;;;3.77;;
12267;SDS011;6196;48.398;11.736;2022-10-29T06:48:03;6.80;;;3.73;;
12267;SDS011;6196;48.398;11.736;2022-10-29T06:50:31;4.93;;;2.87;;
12267;SDS011;6196;48.398;11.736;2022-10-29T06:52:59;7.23;;;3.33;;
12267;SDS011;6196;48.398;11.736;2022-10-29T06:55:28;5.47;;;3.27;;
12267;SDS011;6196;48.398;11.736;2022-10-29T06:57:55;5.13;;;3.00;;
12267;SDS011;6196;48.398;11.736;2022-10-29T07:00:27;7.00;;;3.57;;
12267;SDS011;6196;48.398;11.736;2022-10-29T07:02:55;6.00;;;3.50;;
12267;SDS011;6196;48.398;11.736;2022-10-29T07:05:23;4.90;;;3.90;;
12267;SDS011;6196;48.398;11.736;2022-10-29T07:07:55;4.90;;;3.20;;
12267;SDS011;6196;48.398;11.736;2022-10-29T07:10:24;7.37;;;3.30;;
12267;SDS011;6196;48.398;11.736;2022-10-29T07:12:54;6.27;;;3.10;;
12267;SDS011;6196;48.398;11.736;2022-10-29T07:15:21;5.40;;;3.17;;
12267;SDS011;6196;48.398;11.736;2022-10-29T07:20:32;7.03;;;3.33;;
12267;SDS011;6196;48.398;11.736;2022-10-29T07:23:01;6.80;;;3.70;;
12267;SDS011;6196;48.398;11.736;2022-10-29T07:25:29;13.50;;;8.37;;
12267;SDS011;6196;48.398;11.736;2022-10-29T07:28:07;9.67;;;7.67;;
12267;SDS011;6196;48.398;11.736;2022-10-29T07:30:37;12.80;;;8.43;;
12267;SDS011;6196;48.398;11.736;2022-10-29T07:33:05;10.03;;;7.97;;
12267;SDS011;6196;48.398;11.736;2022-10-29T07:35:32;9.23;;;7.23;;
12267;SDS011;6196;48.398;11.736;2022-10-29T07:38:00;12.37;;;7.63;;
12267;SDS011;6196;48.398;11.736;2022-10-29T07:40:35;10.30;;;7.23;;
12267;SDS011;6196;48.398;11.736;2022-10-29T07:43:04;8.97;;;6.60;;
12267;SDS011;6196;48.398;11.736;2022-10-29T07:45:31;7.77;;;6.80;;
12267;SDS011;6196;48.398;11.736;2022-10-29T07:47:59;9.83;;;6.53;;
12267;SDS011;6196;48.398;11.736;2022-10-29T07:50:28;6.73;;;5.33;;
12267;SDS011;6196;48.398;11.736;2022-10-29T07:52:59;7.33;;;5.27;;
12267;SDS011;6196;48.398;11.736;2022-10-29T07:55:28;8.27;;;6.47;;
12267;SDS011;6196;48.398;11.736;2022-10-29T07:58:00;8.67;;;5.63;;
12267;SDS011;6196;48.398;11.736;2022-10-29T08:00:34;11.03;;;5.30;;
12267;SDS011;6196;48.398;11.736;2022-10-29T08:03:03;7.63;;;5.27;;
12267;SDS011;6196;48.398;11.736;2022-10-29T08:05:30;9.67;;;5.87;;
12267;SDS011;6196;48.398;11.736;2022-10-29T08:07:57;9.73;;;6.00;;
12267;SDS011;6196;48.398;11.736;2022-10-29T08:10:25;6.70;;;5.40;;
12267;SDS011;6196;48.398;11.736;2022-10-29T08:12:54;6.63;;;5.67;;
12267;SDS011;6196;48.398;11.736;2022-10-29T08:15:24;7.63;;;4.90;;
12267;SDS011;6196;48.398;11.736;2022-10-29T08:17:53;9.10;;;5.57;;
12267;SDS011;6196;48.398;11.736;2022-10-29T08:20:20;8.73;;;5.47;;
12267;SDS011;6196;48.398;11.736;2022-10-29T08:22:50;9.90;;;5.10;;
12267;SDS011;6196;48.398;11.736;2022-10-29T08:25:17;5.90;;;4.70;;
12267;SDS011;6196;48.398;11.736;2022-10-29T08:27:44;6.60;;;4.47;;
12267;SDS011;6196;48.398;11.736;2022-10-29T08:30:11;8.30;;;4.20;;
12267;SDS011;6196;48.398;11.736;2022-10-29T08:32:45;6.57;;;4.07;;
12267;SDS011;6196;48.398;11.736;2022-10-29T08:35:13;7.57;;;4.23;;
12267;SDS011;6196;48.398;11.736;2022-10-29T08:37:41;7.47;;;3.90;;
12267;SDS011;6196;48.398;11.736;2022-10-29T08:40:23;8.80;;;3.63;;
12267;SDS011;6196;48.398;11.736;2022-10-29T08:45:59;6.73;;;3.20;;
12267;SDS011;6196;48.398;11.736;2022-10-29T08:51:05;8.53;;;3.70;;
12267;SDS011;6196;48.398;11.736;2022-10-29T08:53:55;7.90;;;3.80;;
12267;SDS011;6196;48.398;11.736;2022-10-29T08:56:48;6.20;;;3.17;;
12267;SDS011;6196;48.398;11.736;2022-10-29T08:59:20;5.53;;;3.23;;
12267;SDS011;6196;48.398;11.736;2022-10-29T09:01:49;7.60;;;3.20;;
12267;SDS011;6196;48.398;11.736;2022-10-29T09:07:06;7.87;;;3.70;;
12267;SDS011;6196;48.398;11.736;2022-10-29T09:10:07;7.70;;;4.00;;
12267;SDS011;6196;48.398;11.736;2022-10-29T09:12:58;7.43;;;4.73;;
12267;SDS011;6196;48.398;11.736;2022-10-29T09:16:12;7.53;;;3.80;;
12267;SDS011;6196;48.398;11.736;2022-10-29T09:24:15;8.83;;;4.87;;
12267;SDS011;6196;48.398;11.736;2022-10-29T09:26:56;8.27;;;4.13;;
12267;SDS011;6196;48.398;11.736;2022-10-29T09:29:47;7.63;;;3.80;;
12267;SDS011;6196;48.398;11.736;2022-10-29T09:32:39;5.30;;;3.40;;
12267;SDS011;6196;48.398;11.736;2022-10-29T09:35:14;10.47;;;3.90;;
12267;SDS011;6196;48.398;11.736;2022-10-29T09:37:46;9.50;;;4.13;;
12267;SDS011;6196;48.398;11.736;2022-10-29T09:40:32;10.77;;;4.30;;
12267;SDS011;6196;48.398;11.736;2022-10-29T09:42:59;11.50;;;3.90;;
12267;SDS011;6196;48.398;11.736;2022-10-29T09:45:45;7.27;;;3.63;;
12267;SDS011;6196;48.398;11.736;2022-10-29T09:48:22;10.00;;;3.30;;
12267;SDS011;6196;48.398;11.736;2022-10-29T09:50:59;7.57;;;3.00;;
12267;SDS011;6196;48.398;11.736;2022-10-29T09:53:36;7.97;;;3.10;;
12267;SDS011;6196;48.398;11.736;2022-10-29T09:56:05;8.47;;;2.93;;
12267;SDS011;6196;48.398;11.736;2022-10-29T09:58:35;6.67;;;3.10;;
12267;SDS011;6196;48.398;11.736;2022-10-29T10:01:06;5.50;;;2.50;;
12267;SDS011;6196;48.398;11.736;2022-10-29T10:03:40;9.23;;;2.90;;
12267;SDS011;6196;48.398;11.736;2022-10-29T10:06:11;7.73;;;2.80;;
12267;SDS011;6196;48.398;11.736;2022-10-29T10:11:34;5.33;;;2.43;;
12267;SDS011;6196;48.398;11.736;2022-10-29T10:14:07;5.13;;;2.60;;
12267;SDS011;6196;48.398;11.736;2022-10-29T10:16:45;8.13;;;3.13;;
12267;SDS011;6196;48.398;11.736;2022-10-29T10:19:26;8.02;;;3.53;;
12267;SDS011;6196;48.398;11.736;2022-10-29T10:22:00;6.72;;;2.97;;
12267;SDS011;6196;48.398;11.736;2022-10-29T10:32:30;8.30;;;2.85;;
12267;SDS011;6196;48.398;11.736;2022-10-29T10:34:57;14.10;;;3.15;;
12267;SDS011;6196;48.398;11.736;2022-10-29T10:37:24;9.50;;;2.80;;
12267;SDS011;6196;48.398;11.736;2022-10-29T10:39:53;7.72;;;2.92;;
12267;SDS011;6196;48.398;11.736;2022-10-29T10:42:30;8.05;;;2.72;;
12267;SDS011;6196;48.398;11.736;2022-10-29T10:45:04;8.55;;;3.28;;
12267;SDS011;6196;48.398;11.736;2022-10-29T10:47:49;11.60;;;3.75;;
12267;SDS011;6196;48.398;11.736;2022-10-29T10:50:27;8.45;;;2.70;;
12267;SDS011;6196;48.398;11.736;2022-10-29T10:53:00;6.80;;;3.30;;
12267;SDS011;6196;48.398;11.736;2022-10-29T10:55:31;8.75;;;3.00;;
12267;SDS011;6196;48.398;11.736;2022-10-29T10:58:04;8.65;;;3.13;;
12267;SDS011;6196;48.398;11.736;2022-10-29T11:01:09;5.93;;;2.78;;
12267;SDS011;6196;48.398;11.736;2022-10-29T11:03:46;13.10;;;3.13;;
12267;SDS011;6196;48.398;11.736;2022-10-29T11:06:21;8.13;;;2.95;;
12267;SDS011;6196;48.398;11.736;2022-10-29T11:12:02;5.90;;;2.83;;
12267;SDS011;6196;48.398;11.736;2022-10-29T11:14:38;7.70;;;2.70;;
12267;SDS011;6196;48.398;11.736;2022-10-29T11:20:30;13.05;;;3.72;;
12267;SDS011;6196;48.398;11.736;2022-10-29T11:25:55;8.43;;;3.08;;
12267;SDS011;6196;48.398;11.736;2022-10-29T11:28:45;9.80;;;2.88;;
12267;SDS011;6196;48.398;11.736;2022-10-29T11:31:21;10.65;;;2.85;;
12267;SDS011;6196;48.398;11.736;2022-10-29T11:37:06;8.43;;;2.80;;
12267;SDS011;6196;48.398;11.736;2022-10-29T11:42:29;8.30;;;3.00;;
12267;SDS011;6196;48.398;11.736;2022-10-29T11:44:59;7.28;;;3.05;;
12267;SDS011;6196;48.398;11.736;2022-10-29T11:52:53;13.05;;;3.08;;
12267;SDS011;6196;48.398;11.736;2022-10-29T11:55:32;8.95;;;2.88;;
12267;SDS011;6196;48.398;11.736;2022-10-29T11:58:23;11.00;;;3.53;;
12267;SDS011;6196;48.398;11.736;2022-10-29T12:04:23;8.48;;;3.20;;
12267;SDS011;6196;48.398;11.736;2022-10-29T12:07:03;7.75;;;3.17;;
12267;SDS011;6196;48.398;11.736;2022-10-29T12:21:49;9.43;;;3.15;;
12267;SDS011;6196;48.398;11.736;2022-10-29T12:25:03;10.93;;;3.47;;
12267;SDS011;6196;48.398;11.736;2022-10-29T12:30:26;9.52;;;3.20;;
12267;SDS011;6196;48.398;11.736;2022-10-29T12:36:09;12.23;;;3.30;;
12267;SDS011;6196;48.398;11.736;2022-10-29T12:39:35;9.48;;;3.83;;
12267;SDS011;6196;48.398;11.736;2022-10-29T12:42:13;8.73;;;3.22;;
12267;SDS011;6196;48.398;11.736;2022-10-29T12:45:07;9.93;;;2.80;;
12267;SDS011;6196;48.398;11.736;2022-10-29T12:50:24;10.88;;;3.47;;
12267;SDS011;6196;48.398;11.736;2022-10-29T12:56:20;10.32;;;2.90;;
12267;SDS011;6196;48.398;11.736;2022-10-29T13:04:31;7.60;;;3.20;;
12267;SDS011;6196;48.398;11.736;2022-10-29T13:12:08;9.98;;;3.30;;
12267;SDS011;6196;48.398;11.736;2022-10-29T13:19:59;9.82;;;3.20;;
12267;SDS011;6196;48.398;11.736;2022-10-29T13:30:35;12.13;;;3.38;;
12267;SDS011;6196;48.398;11.736;2022-10-29T13:41:48;10.93;;;3.33;;
12267;SDS011;6196;48.398;11.736;2022-10-29T13:44:20;12.77;;;3.13;;
12267;SDS011;6196;48.398;11.736;2022-10-29T13:49:46;11.77;;;3.30;;
12267;SDS011;6196;48.398;11.736;2022-10-29T13:52:18;13.23;;;3.15;;
12267;SDS011;6196;48.398;11.736;2022-10-29T13:54:57;9.18;;;2.95;;
12267;SDS011;6196;48.398;11.736;2022-10-29T13:57:32;9.60;;;3.35;;
12267;SDS011;6196;48.398;11.736;2022-10-29T14:05:44;12.05;;;3.65;;
12267;SDS011;6196;48.398;11.736;2022-10-29T14:08:27;8.25;;;3.20;;
12267;SDS011;6196;48.398;11.736;2022-10-29T14:11:11;6.55;;;2.60;;
12267;SDS011;6196;48.398;11.736;2022-10-29T14:13:47;7.57;;;2.95;;
12267;SDS011;6196;48.398;11.736;2022-10-29T14:16:16;8.48;;;3.10;;
12267;SDS011;6196;48.398;11.736;2022-10-29T14:18:47;13.70;;;3.50;;
12267;SDS011;6196;48.398;11.736;2022-10-29T14:21:28;7.65;;;3.53;;
12267;SDS011;6196;48.398;11.736;2022-10-29T14:24:03;11.45;;;2.70;;
12267;SDS011;6196;48.398;11.736;2022-10-29T14:26:34;9.02;;;2.83;;
12267;SDS011;6196;48.398;11.736;2022-10-29T14:29:24;9.07;;;3.22;;
12267;SDS011;6196;48.398;11.736;2022-10-29T14:34:48;11.52;;;2.70;;
12267;SDS011;6196;48.398;11.736;2022-10-29T14:37:27;9.18;;;3.08;;
12267;SDS011;6196;48.398;11.736;2022-10-29T14:39:59;12.38;;;3.20;;
12267;SDS011;6196;48.398;11.736;2022-10-29T14:42:36;7.60;;;3.17;;
12267;SDS011;6196;48.398;11.736;2022-10-29T14:45:19;9.50;;;3.20;;
12267;SDS011;6196;48.398;11.736;2022-10-29T14:47:54;10.35;;;3.88;;
12267;SDS011;6196;48.398;11.736;2022-10-29T14:50:27;10.05;;;2.80;;
12267;SDS011;6196;48.398;11.736;2022-10-29T14:52:55;6.68;;;3.20;;
12267;SDS011;6196;48.398;11.736;2022-10-29T14:55:29;10.95;;;2.97;;
12267;SDS011;6196;48.398;11.736;2022-10-29T14:58:04;11.75;;;3.17;;
12267;SDS011;6196;48.398;11.736;2022-10-29T15:03:22;9.25;;;4.47;;
12267;SDS011;6196;48.398;11.736;2022-10-29T15:06:07;11.45;;;4.47;;
12267;SDS011;6196;48.398;11.736;2022-10-29T15:08:44;9.98;;;4.85;;
12267;SDS011;6196;48.398;11.736;2022-10-29T15:11:30;8.30;;;4.20;;
12267;SDS011;6196;48.398;11.736;2022-10-29T15:14:02;8.38;;;3.45;;
12267;SDS011;6196;48.398;11.736;2022-10-29T15:16:48;14.40;;;3.47;;
12267;SDS011;6196;48.398;11.736;2022-10-29T15:19:15;8.15;;;2.90;;
12267;SDS011;6196;48.398;11.736;2022-10-29T15:21:43;10.53;;;3.23;;
12267;SDS011;6196;48.398;11.736;2022-10-29T15:24:11;6.53;;;3.03;;
12267;SDS011;6196;48.398;11.736;2022-10-29T15:26:51;9.30;;;2.63;;
12267;SDS011;6196;48.398;11.736;2022-10-29T15:29:22;13.50;;;2.90;;
12267;SDS011;6196;48.398;11.736;2022-10-29T15:31:59;7.67;;;2.93;;
12267;SDS011;6196;48.398;11.736;2022-10-29T15:34:35;7.30;;;3.03;;
12267;SDS011;6196;48.398;11.736;2022-10-29T15:42:35;11.23;;;2.87;;
12267;SDS011;6196;48.398;11.736;2022-10-29T15:47:41;10.00;;;2.77;;
12267;SDS011;6196;48.398;11.736;2022-10-29T15:50:14;8.53;;;3.33;;
12267;SDS011;6196;48.398;11.736;2022-10-29T15:52:52;8.47;;;3.17;;
12267;SDS011;6196;48.398;11.736;2022-10-29T15:55:29;7.30;;;3.13;;
12267;SDS011;6196;48.398;11.736;2022-10-29T15:58:03;7.53;;;3.60;;
12267;SDS011;6196;48.398;11.736;2022-10-29T16:00:41;6.10;;;3.43;;
12267;SDS011;6196;48.398;11.736;2022-10-29T16:03:15;8.90;;;3.90;;
12267;SDS011;6196;48.398;11.736;2022-10-29T16:06:01;9.60;;;4.20;;
12267;SDS011;6196;48.398;11.736;2022-10-29T16:11:09;12.33;;;3.57;;
12267;SDS011;6196;48.398;11.736;2022-10-29T16:13:39;9.47;;;3.70;;
12267;SDS011;6196;48.398;11.736;2022-10-29T16:16:22;10.33;;;4.83;;
12267;SDS011;6196;48.398;11.736;2022-10-29T16:18:50;8.53;;;4.30;;
12267;SDS011;6196;48.398;11.736;2022-10-29T16:21:20;10.07;;;4.53;;
12267;SDS011;6196;48.398;11.736;2022-10-29T16:23:49;10.43;;;4.40;;
12267;SDS011;6196;48.398;11.736;2022-10-29T16:26:18;9.77;;;5.07;;
12267;SDS011;6196;48.398;11.736;2022-10-29T16:28:48;10.87;;;4.27;;
12267;SDS011;6196;48.398;11.736;2022-10-29T16:31:19;9.57;;;4.53;;
12267;SDS011;6196;48.398;11.736;2022-10-29T16:33:52;11.90;;;4.80;;
12267;SDS011;6196;48.398;11.736;2022-10-29T16:36:22;8.57;;;4.03;;
12267;SDS011;6196;48.398;11.736;2022-10-29T16:38:50;8.53;;;4.17;;
12267;SDS011;6196;48.398;11.736;2022-10-29T16:41:17;8.30;;;4.23;;
12267;SDS011;6196;48.398;11.736;2022-10-29T16:43:45;8.13;;;4.47;;
12267;SDS011;6196;48.398;11.736;2022-10-29T16:46:13;7.30;;;4.20;;
12267;SDS011;6196;48.398;11.736;2022-10-29T16:48:40;11.80;;;4.50;;
12267;SDS011;6196;48.398;11.736;2022-10-29T16:51:07;10.37;;;4.50;;
12267;SDS011;6196;48.398;11.736;2022-10-29T16:53:34;9.67;;;4.90;;
12267;SDS011;6196;48.398;11.736;2022-10-29T16:56:01;12.13;;;4.73;;
12267;SDS011;6196;48.398;11.736;2022-10-29T16:58:28;7.43;;;4.10;;
12267;SDS011;6196;48.398;11.736;2022-10-29T17:01:02;10.13;;;4.43;;
12267;SDS011;6196;48.398;11.736;2022-10-29T17:03:31;11.53;;;4.70;;
12267;SDS011;6196;48.398;11.736;2022-10-29T17:06:08;9.23;;;5.33;;
12267;SDS011;6196;48.398;11.736;2022-10-29T17:08:35;9.47;;;5.00;;
12267;SDS011;6196;48.398;11.736;2022-10-29T17:11:03;10.70;;;5.13;;
12267;SDS011;6196;48.398;11.736;2022-10-29T17:13:33;7.37;;;4.70;;
12267;SDS011;6196;48.398;11.736;2022-10-29T17:16:08;9.13;;;5.20;;
12267;SDS011;6196;48.398;11.736;2022-10-29T17:18:39;10.17;;;5.47;;
12267;SDS011;6196;48.398;11.736;2022-10-29T17:21:06;11.23;;;6.03;;
12267;SDS011;6196;48.398;11.736;2022-10-29T17:23:33;11.37;;;5.43;;
12267;SDS011;6196;48.398;11.736;2022-10-29T17:26:00;9.13;;;5.17;;
12267;SDS011;6196;48.398;11.736;2022-10-29T17:28:27;6.70;;;4.87;;
12267;SDS011;6196;48.398;11.736;2022-10-29T17:30:54;11.27;;;5.13;;
12267;SDS011;6196;48.398;11.736;2022-10-29T17:33:21;12.20;;;6.00;;
12267;SDS011;6196;48.398;11.736;2022-10-29T17:35:48;10.87;;;5.40;;
12267;SDS011;6196;48.398;11.736;2022-10-29T17:38:15;11.17;;;5.43;;
12267;SDS011;6196;48.398;11.736;2022-10-29T17:40:42;9.23;;;5.03;;
12267;SDS011;6196;48.398;11.736;2022-10-29T17:43:11;8.63;;;5.13;;
12267;SDS011;6196;48.398;11.736;2022-10-29T17:45:38;7.03;;;4.90;;
12267;SDS011;6196;48.398;11.736;2022-10-29T17:48:07;11.80;;;5.60;;
12267;SDS011;6196;48.398;11.736;2022-10-29T17:50:34;10.13;;;5.40;;
12267;SDS011;6196;48.398;11.736;2022-10-29T17:53:01;10.00;;;5.23;;
12267;SDS011;6196;48.398;11.736;2022-10-29T17:55:28;10.17;;;5.23;;
12267;SDS011;6196;48.398;11.736;2022-10-29T17:57:55;8.17;;;5.20;;
12267;SDS011;6196;48.398;11.736;2022-10-29T18:00:22;9.47;;;5.20;;
12267;SDS011;6196;48.398;11.736;2022-10-29T18:02:50;12.70;;;5.37;;